New Pine Creek, Oregon
Current Conditions -  °F | °C
As of 1:15 AM on Thursday 23 Oct 2014 (Local Time) from KLKV Reporting Station
Overcast Overcast  
Wind Chill: 39°   Ceiling: 3300
Heat Index: 45°   Visibility: 10mi
Dew Point: 43°   Wind: 12mph
Humidity: 93%   Direction: 140°SE
Pressure: 30.08"   Gusts: NA
Location:  42°N, 120.3°W
Report Text: KLKV 230815Z AUTO 14010KT 10SM SCT025 BKN033 OVC060 07/06 A3008 RMK AO1
Loading
Personal Weather Stations






























Interactive Weather Map
Tropical Storm Tracking
New forecast layout! Learn more

10-Day Weather Forecast

Advertisements
Track Severe Weather on mobile